Time;durP1;ratioP1;P1;durP2;ratioP2;P2;SDS_P1;SDS_P2;PMS_P1;PMS_P2;Temp;Humidity;BMP_temperature;BMP_pressure;BME280_temperature;BME280_humidity;BME280_pressure;Samples;Min_cycle;Max_cycle;Signal;HPM_P1;HPM_P2
2022/06/06 00:02:10;;;;;;;9.52;4.40;;;14.50;99.90;;;;;;5132363;28;20051;-75
2022/06/06 00:04:42;;;;;;;11.20;5.10;;;14.50;99.90;;;;;;5135641;28;20047;-75
2022/06/06 00:07:14;;;;;;;9.43;4.93;;;14.50;99.90;;;;;;5135177;28;20043;-77
2022/06/06 00:09:47;;;;;;;6.68;4.50;;;14.50;99.90;;;;;;5137994;28;20047;-76
2022/06/06 00:12:20;;;;;;;8.32;5.00;;;14.60;99.90;;;;;;5136090;28;20050;-76
2022/06/06 00:14:52;;;;;;;9.27;4.87;;;14.50;99.90;;;;;;5136697;28;20121;-74
2022/06/06 00:17:25;;;;;;;4.70;3.67;;;14.50;99.90;;;;;;5141345;28;20313;-74
2022/06/06 00:19:58;;;;;;;8.25;4.35;;;14.50;99.90;;;;;;5162590;28;20047;-76
2022/06/06 00:22:30;;;;;;;5.07;3.65;;;14.50;99.90;;;;;;5141660;28;20046;-74
2022/06/06 00:25:03;;;;;;;5.82;4.10;;;14.60;99.90;;;;;;5138588;28;20046;-76
2022/06/06 00:27:36;;;;;;;7.18;3.90;;;14.60;99.90;;;;;;5135452;28;20065;-78
2022/06/06 00:30:09;;;;;;;8.88;4.28;;;14.60;99.90;;;;;;5153492;28;20043;-73
2022/06/06 00:35:32;;;;;;;6.25;3.92;;;14.60;99.90;;;;;;5135697;28;20604;-74
2022/06/06 00:38:04;;;;;;;7.85;3.65;;;14.60;99.90;;;;;;5138219;28;20050;-80
2022/06/06 00:40:37;;;;;;;4.63;4.07;;;14.50;99.90;;;;;;5179003;28;20034;-76
2022/06/06 00:43:09;;;;;;;5.78;4.25;;;14.50;99.90;;;;;;5136959;28;20046;-77
2022/06/06 00:45:44;;;;;;;6.80;4.40;;;14.50;99.90;;;;;;5127135;28;20039;-75
2022/06/06 00:48:20;;;;;;;8.15;4.38;;;14.50;99.90;;;;;;5138956;28;20050;-74
2022/06/06 00:50:56;;;;;;;6.95;4.70;;;14.50;99.90;;;;;;5134764;28;20062;-75
2022/06/06 00:53:46;;;;;;;7.85;4.40;;;14.50;99.90;;;;;;5134161;28;20054;-76
2022/06/06 00:56:28;;;;;;;9.02;4.53;;;14.40;99.90;;;;;;5129607;28;20047;-76
2022/06/06 00:59:04;;;;;;;6.28;3.83;;;14.50;99.90;;;;;;5163000;28;20062;-75
2022/06/06 01:01:38;;;;;;;6.30;3.83;;;14.40;99.90;;;;;;5136603;28;20058;-74
2022/06/06 01:04:14;;;;;;;8.82;4.20;;;14.40;99.90;;;;;;5131492;28;20058;-73
2022/06/06 01:06:47;;;;;;;11.35;4.60;;;14.50;99.90;;;;;;5138803;28;20469;-77
2022/06/06 01:09:22;;;;;;;4.85;3.92;;;14.50;99.90;;;;;;5145094;28;20057;-77
2022/06/06 01:12:01;;;;;;;9.27;5.10;;;14.40;99.90;;;;;;5199904;28;20038;-76
2022/06/06 01:14:37;;;;;;;10.93;4.72;;;14.40;99.90;;;;;;5136741;28;20467;-73
2022/06/06 01:17:22;;;;;;;8.25;4.15;;;14.30;99.90;;;;;;5134078;28;20054;-76
2022/06/06 01:20:04;;;;;;;9.98;5.75;;;14.30;99.90;;;;;;5135301;28;20081;-73
2022/06/06 01:22:50;;;;;;;8.07;4.05;;;14.30;99.90;;;;;;5129968;28;20054;-74
2022/06/06 01:25:22;;;;;;;6.72;4.00;;;14.30;99.90;;;;;;5135872;28;20050;-73
2022/06/06 01:28:20;;;;;;;8.45;4.85;;;14.30;99.90;;;;;;5135481;28;20152;-74
2022/06/06 01:30:56;;;;;;;11.88;4.15;;;14.30;99.90;;;;;;5133446;28;20560;-75
2022/06/06 01:33:29;;;;;;;8.75;4.30;;;14.20;99.90;;;;;;5132158;28;20062;-75
2022/06/06 01:36:01;;;;;;;9.02;3.97;;;14.10;99.90;;;;;;5141558;28;20042;-74
2022/06/06 01:38:34;;;;;;;9.35;4.53;;;14.10;99.90;;;;;;5131155;28;20057;-73
2022/06/06 01:41:09;;;;;;;11.05;4.97;;;14.00;99.90;;;;;;5134757;28;20050;-73
2022/06/06 01:43:53;;;;;;;7.88;4.70;;;14.00;99.90;;;;;;5136327;28;20051;-76
2022/06/06 01:46:29;;;;;;;8.40;4.68;;;14.00;99.90;;;;;;5134678;28;20051;-73
2022/06/06 01:49:05;;;;;;;11.38;4.50;;;13.90;99.90;;;;;;5133219;28;20042;-74
2022/06/06 01:51:38;;;;;;;14.90;4.85;;;13.90;99.90;;;;;;5134180;28;20047;-74
2022/06/06 01:54:15;;;;;;;7.00;4.30;;;13.90;99.90;;;;;;5136122;28;20046;-74
2022/06/06 01:56:48;;;;;;;10.35;4.85;;;13.90;99.90;;;;;;5157338;28;20043;-75
2022/06/06 01:59:22;;;;;;;10.02;4.80;;;13.90;99.90;;;;;;5142448;28;20070;-77
2022/06/06 02:01:54;;;;;;;11.15;5.40;;;13.80;99.90;;;;;;5132875;28;20050;-76
2022/06/06 02:04:27;;;;;;;9.13;4.07;;;13.80;99.90;;;;;;5136418;28;20985;-75
2022/06/06 02:06:59;;;;;;;10.45;5.60;;;13.70;99.90;;;;;;5131918;28;20046;-76
2022/06/06 02:09:32;;;;;;;8.77;5.30;;;13.70;99.90;;;;;;5132601;28;20543;-74
2022/06/06 02:12:05;;;;;;;9.45;4.65;;;13.70;99.90;;;;;;5133146;28;20051;-74
2022/06/06 02:14:38;;;;;;;6.20;4.17;;;13.80;99.90;;;;;;5134806;28;20046;-75
2022/06/06 02:17:11;;;;;;;8.77;4.25;;;13.80;99.90;;;;;;5124772;28;20700;-75
2022/06/06 02:19:43;;;;;;;8.70;5.35;;;13.80;99.90;;;;;;5132998;28;20156;-75
2022/06/06 02:22:15;;;;;;;10.48;4.65;;;13.80;99.90;;;;;;5117350;28;20434;-76
2022/06/06 02:24:48;;;;;;;9.07;5.22;;;13.80;99.90;;;;;;5196613;28;20065;-75
2022/06/06 02:27:21;;;;;;;7.28;4.18;;;13.70;99.90;;;;;;5132979;28;20055;-75
2022/06/06 02:29:53;;;;;;;9.52;4.72;;;13.60;99.90;;;;;;5132105;28;20542;-75
2022/06/06 02:32:26;;;;;;;13.75;4.32;;;13.60;99.90;;;;;;5135829;28;20050;-76
2022/06/06 02:34:58;;;;;;;12.55;4.60;;;13.60;99.90;;;;;;5133987;28;20160;-78
2022/06/06 02:37:31;;;;;;;9.05;4.40;;;13.60;99.90;;;;;;5143415;28;20043;-75
2022/06/06 02:40:09;;;;;;;15.25;5.15;;;13.50;99.90;;;;;;5135199;28;20551;-78
2022/06/06 02:42:42;;;;;;;11.48;6.35;;;13.50;99.90;;;;;;5141110;28;20050;-74
2022/06/06 02:45:16;;;;;;;15.30;5.88;;;13.40;99.90;;;;;;5145903;28;20047;-76
2022/06/06 02:47:50;;;;;;;;;;;13.50;99.90;;;;;;5126751;28;20050;-74
2022/06/06 02:50:26;;;;;;;7.70;4.75;;;13.40;99.90;;;;;;5133672;28;20396;-74
2022/06/06 02:52:59;;;;;;;6.00;5.05;;;13.40;99.90;;;;;;5135121;28;20047;-75
2022/06/06 02:55:33;;;;;;;6.15;4.22;;;13.40;99.90;;;;;;5132333;28;20658;-76
2022/06/06 02:58:05;;;;;;;9.88;5.20;;;13.40;99.90;;;;;;5134370;28;20047;-75
2022/06/06 03:00:42;;;;;;;5.68;4.32;;;13.40;99.90;;;;;;5136110;28;20051;-75
2022/06/06 03:03:15;;;;;;;8.32;4.18;;;13.40;99.90;;;;;;5138801;28;20062;-75
2022/06/06 03:06:07;;;;;;;15.40;5.03;;;13.40;99.90;;;;;;5135885;28;20058;-74
2022/06/06 03:09:17;;;;;;;7.40;3.90;;;13.40;99.90;;;;;;5122786;28;20153;-74
2022/06/06 03:12:20;;;;;;;5.75;4.60;;;13.30;99.90;;;;;;5137683;28;20046;-74
2022/06/06 03:15:15;;;;;;;6.57;4.47;;;13.20;99.90;;;;;;5131656;28;20054;-77
2022/06/06 03:20:54;;;;;;;9.75;4.65;;;13.20;99.90;;;;;;5202548;28;20050;-76
2022/06/06 03:23:26;;;;;;;9.48;4.72;;;13.10;99.90;;;;;;5133478;28;20050;-75
2022/06/06 03:26:11;;;;;;;7.28;5.25;;;13.10;99.90;;;;;;5204270;28;20053;-74
2022/06/06 03:29:13;;;;;;;10.63;4.43;;;13.10;99.90;;;;;;5170787;28;20054;-77
2022/06/06 03:32:03;;;;;;;5.90;3.83;;;13.10;99.90;;;;;;5148055;28;20494;-74
2022/06/06 03:34:54;;;;;;;6.30;4.30;;;13.00;99.90;;;;;;5130609;28;20656;-75
2022/06/06 03:37:35;;;;;;;6.28;4.32;;;13.00;99.90;;;;;;5200956;28;20048;-75
2022/06/06 03:40:22;;;;;;;8.57;4.88;;;13.00;99.90;;;;;;5136664;28;20043;-75
2022/06/06 03:43:24;;;;;;;6.47;4.20;;;13.00;99.90;;;;;;5133507;28;20051;-75
2022/06/06 03:46:16;;;;;;;9.75;4.93;;;13.00;99.90;;;;;;5125040;28;20050;-75
2022/06/06 03:49:15;;;;;;;6.65;3.80;;;13.00;99.90;;;;;;5151584;28;20058;-74
2022/06/06 03:52:02;;;;;;;8.50;4.38;;;13.10;99.90;;;;;;5130997;28;20535;-76
2022/06/06 03:55:10;;;;;;;6.65;4.15;;;13.20;99.90;;;;;;5131630;28;21146;-74
2022/06/06 03:57:46;;;;;;;5.47;3.63;;;13.20;99.90;;;;;;5131046;28;20413;-74
2022/06/06 04:00:20;;;;;;;5.55;4.25;;;13.20;99.90;;;;;;5129930;28;20161;-75
2022/06/06 04:02:55;;;;;;;12.35;4.15;;;13.30;99.90;;;;;;5130775;28;20058;-73
2022/06/06 04:05:30;;;;;;;5.97;4.65;;;13.40;99.90;;;;;;5128624;28;20066;-76
2022/06/06 04:08:03;;;;;;;6.78;4.80;;;13.40;99.90;;;;;;5140732;28;20061;-76
2022/06/06 04:10:49;;;;;;;7.20;5.25;;;13.50;99.90;;;;;;5142009;28;20703;-75
2022/06/06 04:13:45;;;;;;;9.55;4.63;;;13.60;99.90;;;;;;5144435;28;20047;-75
2022/06/06 04:16:44;;;;;;;12.75;6.95;;;13.60;99.90;;;;;;5147830;28;20055;-75
2022/06/06 04:19:27;;;;;;;10.82;5.15;;;13.60;99.90;;;;;;5146039;28;20054;-74
2022/06/06 04:22:26;;;;;;;7.13;4.87;;;13.70;99.90;;;;;;5146786;28;20057;-74
2022/06/06 04:25:08;;;;;;;9.82;5.13;;;13.70;99.90;;;;;;5136280;28;20054;-74
2022/06/06 04:28:09;;;;;;;9.25;5.40;;;13.80;99.90;;;;;;5137368;28;20494;-74
2022/06/06 04:31:01;;;;;;;9.48;5.18;;;13.80;99.90;;;;;;5153026;28;20466;-74
2022/06/06 04:33:50;;;;;;;8.57;5.00;;;13.90;99.90;;;;;;5204264;28;20051;-78
2022/06/06 04:36:50;;;;;;;10.48;6.55;;;14.00;99.90;;;;;;5140852;28;20043;-75
2022/06/06 04:39:49;;;;;;;13.27;5.45;;;13.90;99.90;;;;;;5138327;28;20539;-74
2022/06/06 04:42:44;;;;;;;6.70;4.90;;;14.00;99.90;;;;;;5128466;28;20057;-74
2022/06/06 04:45:54;;;;;;;8.32;5.18;;;14.00;99.90;;;;;;5139842;28;20049;-74
2022/06/06 04:48:27;;;;;;;10.38;5.50;;;14.00;99.90;;;;;;5212513;28;20121;-74
2022/06/06 04:51:02;;;;;;;6.90;4.82;;;14.00;99.90;;;;;;5138997;28;20043;-74
2022/06/06 04:53:41;;;;;;;5.88;4.68;;;14.00;99.90;;;;;;5144488;28;20050;-75
2022/06/06 04:56:15;;;;;;;6.95;4.55;;;14.00;99.90;;;;;;5138868;28;20070;-76
2022/06/06 04:58:50;;;;;;;8.07;4.88;;;14.10;99.90;;;;;;5134691;28;20065;-75
2022/06/06 05:01:24;;;;;;;7.22;4.05;;;14.10;99.90;;;;;;5137208;28;20050;-75
2022/06/06 05:03:57;;;;;;;6.78;4.07;;;14.10;99.90;;;;;;5138748;28;20489;-74
2022/06/06 05:07:02;;;;;;;5.80;4.15;;;14.20;99.90;;;;;;5135263;28;20462;-73
2022/06/06 05:10:12;;;;;;;8.50;4.65;;;14.30;99.90;;;;;;5134683;28;20697;-74
2022/06/06 05:13:03;;;;;;;5.15;4.15;;;14.30;99.90;;;;;;5135271;28;20066;-75
2022/06/06 05:15:45;;;;;;;6.68;4.63;;;14.30;99.90;;;;;;5138808;28;20061;-74
2022/06/06 05:18:45;;;;;;;12.43;4.63;;;14.30;99.90;;;;;;5137865;28;20426;-75
2022/06/06 05:21:26;;;;;;;5.28;4.35;;;14.40;99.90;;;;;;5156259;28;20055;-74
2022/06/06 05:24:17;;;;;;;5.88;3.55;;;14.60;99.90;;;;;;5135001;28;20962;-77
2022/06/06 05:27:20;;;;;;;6.35;3.95;;;14.80;99.90;;;;;;5133343;28;20773;-74
2022/06/06 05:30:06;;;;;;;8.15;4.38;;;14.90;99.90;;;;;;5136100;28;20050;-74
2022/06/06 05:33:24;;;;;;;10.27;4.50;;;15.00;99.90;;;;;;5139810;28;20046;-75
2022/06/06 05:36:10;;;;;;;6.85;3.63;;;15.10;99.90;;;;;;5136700;28;20046;-76
2022/06/06 05:39:07;;;;;;;10.40;4.43;;;15.20;99.90;;;;;;5130875;28;20405;-75
2022/06/06 05:42:01;;;;;;;11.25;4.05;;;15.20;99.90;;;;;;5137063;28;20063;-74
2022/06/06 05:44:53;;;;;;;8.73;4.40;;;15.30;99.90;;;;;;5131772;28;20055;-74
2022/06/06 05:47:37;;;;;;;6.90;4.10;;;15.30;99.90;;;;;;5145344;28;20065;-75
2022/06/06 05:50:29;;;;;;;6.28;4.00;;;15.30;99.90;;;;;;5208870;28;20047;-75
2022/06/06 05:53:09;;;;;;;5.93;3.75;;;15.40;99.90;;;;;;5133349;28;20047;-72
2022/06/06 05:56:19;;;;;;;7.05;4.30;;;15.50;99.90;;;;;;5134875;28;20059;-75
2022/06/06 05:59:34;;;;;;;5.00;3.75;;;15.50;99.90;;;;;;5136542;28;20806;-75
2022/06/06 06:02:14;;;;;;;;;;;15.70;99.90;;;;;;5122192;28;20059;-75
2022/06/06 06:05:11;;;;;;;7.85;3.78;;;15.80;99.90;;;;;;5134033;28;19922;-76
2022/06/06 06:08:02;;;;;;;7.72;3.83;;;16.00;99.90;;;;;;5132382;28;20051;-73
2022/06/06 06:10:46;;;;;;;7.32;4.22;;;16.20;99.90;;;;;;5129472;28;20058;-76
2022/06/06 06:13:36;;;;;;;6.03;3.58;;;16.40;99.90;;;;;;5199921;28;20450;-75
2022/06/06 06:16:12;;;;;;;5.20;3.13;;;16.60;99.90;;;;;;5163154;28;20046;-75
2022/06/06 06:18:47;;;;;;;5.68;3.70;;;16.70;99.90;;;;;;5133272;28;20057;-78
2022/06/06 06:21:24;;;;;;;5.20;3.45;;;16.80;99.90;;;;;;5139915;28;20058;-75
2022/06/06 06:24:09;;;;;;;5.68;3.28;;;17.00;99.90;;;;;;5135639;28;20062;-75
2022/06/06 06:26:42;;;;;;;3.88;3.20;;;17.10;99.90;;;;;;5132066;28;20050;-76
2022/06/06 06:29:15;;;;;;;;;;;17.20;99.90;;;;;;5208597;28;20727;-74
2022/06/06 06:32:27;;;;;;;6.28;3.58;;;17.30;99.90;;;;;;5137215;28;19925;-75
2022/06/06 06:35:20;;;;;;;6.68;3.20;;;17.50;99.90;;;;;;5145407;28;20760;-78
2022/06/06 06:38:10;;;;;;;8.15;4.05;;;17.60;99.90;;;;;;5129172;28;21026;-78
2022/06/06 06:40:45;;;;;;;6.47;3.63;;;17.80;99.90;;;;;;5126196;28;20055;-76
2022/06/06 06:43:53;;;;;;;4.47;3.60;;;17.80;99.90;;;;;;5137913;28;20053;-75
2022/06/06 06:46:27;;;;;;;5.45;3.58;;;17.90;99.90;;;;;;5136470;28;20054;-75
2022/06/06 06:49:35;;;;;;;5.35;4.20;;;18.00;99.90;;;;;;5136243;28;20058;-72
2022/06/06 06:52:26;;;;;;;5.40;4.07;;;18.00;99.90;;;;;;5134799;28;20039;-75
2022/06/06 06:55:17;;;;;;;7.50;3.83;;;18.00;99.90;;;;;;5143879;28;20058;-74
2022/06/06 06:58:09;;;;;;;5.05;3.47;;;18.10;99.90;;;;;;5135873;28;20046;-75
2022/06/06 07:00:50;;;;;;;7.43;3.92;;;18.10;99.90;;;;;;5169759;28;20058;-75
2022/06/06 07:10:43;;;;;;;4.88;3.50;;;18.50;99.90;;;;;;5137792;28;20058;-77
2022/06/06 07:13:34;;;;;;;7.97;3.97;;;18.40;99.90;;;;;;5135964;28;20771;-76
2022/06/06 07:16:28;;;;;;;5.53;4.03;;;18.60;99.90;;;;;;5138566;28;20054;-75
2022/06/06 07:19:13;;;;;;;5.20;3.90;;;18.70;99.90;;;;;;5200920;28;20194;-75
2022/06/06 07:21:47;;;;;;;7.10;4.10;;;18.80;99.90;;;;;;5136362;28;20051;-77
2022/06/06 07:24:23;;;;;;;6.30;3.90;;;18.80;99.90;;;;;;5138641;28;20541;-75
2022/06/06 07:26:58;;;;;;;8.18;4.68;;;18.90;99.90;;;;;;5137256;28;20038;-74
2022/06/06 07:29:30;;;;;;;4.50;3.70;;;19.00;99.90;;;;;;5140502;28;20046;-75
2022/06/06 07:32:20;;;;;;;9.10;4.25;;;19.00;99.90;;;;;;5137193;28;20041;-75
2022/06/06 07:35:16;;;;;;;6.45;3.42;;;19.30;99.90;;;;;;5139198;28;20802;-75
2022/06/06 07:38:16;;;;;;;6.45;4.25;;;19.30;99.90;;;;;;5169197;28;20394;-75
2022/06/06 07:41:03;;;;;;;8.02;4.22;;;19.30;99.90;;;;;;5137587;28;20050;-75
2022/06/06 07:43:56;;;;;;;6.20;4.38;;;19.30;99.90;;;;;;5127617;28;20059;-77
2022/06/06 07:46:52;;;;;;;4.93;3.42;;;19.40;99.90;;;;;;5138259;28;20349;-75
2022/06/06 07:49:54;;;;;;;5.35;3.90;;;19.30;99.90;;;;;;5132183;28;20063;-75
2022/06/06 07:52:30;;;;;;;5.63;3.83;;;19.40;99.90;;;;;;5142056;28;20066;-75
2022/06/06 07:55:24;;;;;;;7.50;4.93;;;19.50;99.90;;;;;;5139599;28;20050;-76
2022/06/06 07:58:25;;;;;;;5.97;4.18;;;19.60;99.90;;;;;;5169813;28;20049;-75
2022/06/06 08:01:09;;;;;;;5.15;3.95;;;19.80;99.90;;;;;;5139122;28;20046;-77
2022/06/06 08:04:22;;;;;;;4.88;4.18;;;19.90;99.90;;;;;;5133671;28;20050;-76
2022/06/06 08:07:12;;;;;;;6.07;4.15;;;19.90;98.90;;;;;;5134459;28;20047;-76
2022/06/06 08:10:08;;;;;;;5.72;4.28;;;19.90;99.10;;;;;;5135193;28;20047;-74
2022/06/06 08:12:55;;;;;;;4.20;3.80;;;20.00;96.50;;;;;;5118516;28;20055;-75
2022/06/06 08:15:58;;;;;;;5.38;3.70;;;19.90;97.00;;;;;;5136955;28;20065;-77
2022/06/06 08:18:56;;;;;;;6.60;4.22;;;20.10;99.90;;;;;;5132869;28;20053;-77
2022/06/06 08:21:35;;;;;;;6.32;3.95;;;20.20;99.90;;;;;;5127857;28;20071;-78
2022/06/06 08:24:16;;;;;;;6.20;3.75;;;20.20;99.20;;;;;;5142014;28;20054;-76
2022/06/06 08:27:17;;;;;;;5.68;3.92;;;20.30;99.70;;;;;;5131962;28;20496;-75
2022/06/06 08:29:50;;;;;;;7.97;4.10;;;20.30;97.90;;;;;;5131076;28;20061;-76
2022/06/06 08:32:22;;;;;;;8.63;4.07;;;20.40;99.90;;;;;;5129724;28;20051;-77
2022/06/06 08:34:55;;;;;;;6.57;3.67;;;20.50;99.10;;;;;;5132004;28;20039;-79
2022/06/06 08:37:33;;;;;;;3.92;3.17;;;20.50;95.70;;;;;;5146485;28;20589;-76
2022/06/06 08:40:27;;;;;;;7.35;4.07;;;20.50;94.00;;;;;;5133675;28;20050;-75
2022/06/06 08:43:01;;;;;;;;;;;20.60;97.30;;;;;;5134879;28;20043;-75
2022/06/06 08:45:48;;;;;;;6.17;3.50;;;20.60;94.10;;;;;;5130517;28;19937;-77
2022/06/06 08:48:38;;;;;;;6.05;3.45;;;20.60;95.00;;;;;;5133965;28;20301;-75
2022/06/06 08:51:37;;;;;;;5.18;3.58;;;20.50;91.30;;;;;;5130155;28;20046;-75
2022/06/06 08:54:32;;;;;;;5.15;3.63;;;20.40;93.30;;;;;;5143597;28;20043;-75
2022/06/06 08:57:24;;;;;;;4.53;3.35;;;20.40;92.50;;;;;;5135697;28;20042;-76
2022/06/06 09:00:25;;;;;;;5.70;3.92;;;20.40;92.00;;;;;;5136393;28;20078;-75
2022/06/06 09:03:22;;;;;;;8.38;3.97;;;20.70;92.70;;;;;;5139598;28;20047;-75
2022/06/06 09:06:28;;;;;;;6.90;3.72;;;20.80;91.90;;;;;;5136025;28;20062;-76
2022/06/06 09:09:22;;;;;;;8.07;3.83;;;20.80;94.00;;;;;;5142872;28;20355;-76
2022/06/06 09:12:34;;;;;;;4.47;3.60;;;20.90;92.10;;;;;;5157262;28;20074;-76
2022/06/06 09:15:16;;;;;;;4.95;3.58;;;21.00;89.50;;;;;;5133990;28;20050;-76
2022/06/06 09:18:29;;;;;;;6.50;3.88;;;20.90;91.50;;;;;;5201589;28;20042;-75
2022/06/06 09:21:05;;;;;;;5.00;3.78;;;21.00;91.30;;;;;;5131958;28;20058;-75
2022/06/06 09:24:12;;;;;;;5.85;3.65;;;21.00;91.70;;;;;;5134559;28;20757;-75
2022/06/06 09:27:04;;;;;;;4.75;4.10;;;20.90;92.00;;;;;;5133386;28;20061;-75
2022/06/06 09:29:52;;;;;;;5.25;3.88;;;20.70;91.40;;;;;;5129015;28;20141;-76
2022/06/06 09:32:34;;;;;;;8.05;3.83;;;20.60;91.20;;;;;;5137392;28;20421;-75
2022/06/06 09:35:28;;;;;;;5.55;3.78;;;20.60;90.60;;;;;;5136262;28;20047;-75
2022/06/06 09:38:27;;;;;;;5.85;4.25;;;20.90;91.90;;;;;;5135016;28;20272;-75
2022/06/06 09:41:27;;;;;;;5.47;3.22;;;21.00;90.10;;;;;;5137034;28;20046;-75
2022/06/06 09:44:09;;;;;;;4.78;3.60;;;21.00;91.10;;;;;;5135406;28;20055;-77
2022/06/06 09:47:19;;;;;;;3.70;3.40;;;21.10;91.90;;;;;;5132985;28;20054;-76
2022/06/06 09:50:16;;;;;;;6.22;3.45;;;21.30;90.00;;;;;;5133952;28;20062;-77
2022/06/06 09:53:28;;;;;;;5.00;3.40;;;21.20;88.60;;;;;;5134651;28;20046;-75
2022/06/06 09:59:32;;;;;;;5.80;4.00;;;21.00;88.50;;;;;;5135729;28;20050;-75
2022/06/06 10:02:31;;;;;;;3.97;3.58;;;21.10;91.00;;;;;;5143191;28;20066;-76
2022/06/06 10:05:19;;;;;;;8.45;4.05;;;21.30;90.00;;;;;;5202527;28;20062;-75
2022/06/06 10:08:16;;;;;;;4.63;3.75;;;21.50;90.10;;;;;;5134182;28;20058;-74
2022/06/06 10:11:22;;;;;;;6.22;3.88;;;21.80;90.30;;;;;;5134598;28;20053;-76
2022/06/06 10:14:15;;;;;;;8.65;4.18;;;22.10;89.70;;;;;;5131856;28;20058;-76
2022/06/06 10:17:05;;;;;;;8.55;3.45;;;22.30;85.10;;;;;;5131348;28;20046;-75
2022/06/06 10:20:04;;;;;;;4.57;3.15;;;22.40;80.30;;;;;;5131153;28;20502;-75
2022/06/06 10:23:02;;;;;;;5.00;3.28;;;22.20;83.50;;;;;;5142848;28;20509;-75
2022/06/06 10:25:58;;;;;;;3.50;3.20;;;22.10;82.50;;;;;;5106240;28;20437;-74
2022/06/06 10:28:49;;;;;;;7.63;3.25;;;22.00;83.00;;;;;;5132743;28;20529;-75
2022/06/06 10:31:37;;;;;;;8.32;3.35;;;21.80;81.10;;;;;;5134210;28;20065;-75
2022/06/06 10:34:34;;;;;;;4.07;3.08;;;22.00;83.30;;;;;;5136098;28;20045;-75
2022/06/06 10:37:37;;;;;;;3.65;2.95;;;22.60;85.00;;;;;;5127448;28;20062;-76
2022/06/06 10:40:22;;;;;;;4.38;3.42;;;23.10;80.50;;;;;;5200542;28;20042;-76
2022/06/06 10:43:17;;;;;;;5.30;3.58;;;23.40;75.40;;;;;;5134689;28;20390;-74
2022/06/06 10:46:02;;;;;;;4.10;3.15;;;23.70;80.10;;;;;;5117291;28;20057;-75
2022/06/06 10:48:51;;;;;;;3.67;2.60;;;24.10;74.60;;;;;;5134248;28;20136;-75
2022/06/06 10:52:12;;;;;;;3.85;3.00;;;24.20;74.10;;;;;;5136598;28;20054;-77
2022/06/06 10:55:06;;;;;;;7.05;3.15;;;24.40;75.40;;;;;;5128131;28;20066;-73
2022/06/06 10:57:55;;;;;;;7.75;3.10;;;24.70;76.80;;;;;;5132918;28;20049;-75
2022/06/06 11:00:57;;;;;;;3.92;2.90;;;24.70;75.10;;;;;;5134374;28;20541;-75
2022/06/06 11:04:07;;;;;;;4.47;2.72;;;24.90;72.30;;;;;;5142619;28;20055;-74
2022/06/06 11:07:01;;;;;;;3.58;2.97;;;25.30;68.00;;;;;;5126429;28;20065;-78
2022/06/06 11:09:33;;;;;;;;;;;25.80;71.40;;;;;;5136545;28;20051;-76
2022/06/06 11:12:37;;;;;;;8.40;3.10;;;25.90;69.00;;;;;;5137665;28;20324;-74
2022/06/06 11:15:10;;;;;;;5.78;2.83;;;25.80;68.60;;;;;;5139024;28;20058;-74
2022/06/06 11:17:51;;;;;;;5.77;3.10;;;26.00;68.30;;;;;;5135255;28;20054;-75
2022/06/06 11:20:53;;;;;;;4.20;2.95;;;25.60;67.00;;;;;;5185021;28;20042;-75
2022/06/06 11:24:13;;;;;;;4.75;3.15;;;25.50;69.10;;;;;;5137342;28;20042;-74
2022/06/06 11:27:04;;;;;;;4.00;3.03;;;25.50;68.60;;;;;;5137903;28;20073;-75
2022/06/06 11:29:59;;;;;;;3.85;2.90;;;25.80;66.30;;;;;;5201887;28;20051;-75
2022/06/06 11:33:07;;;;;;;6.85;2.88;;;26.30;65.30;;;;;;5136228;28;20419;-73
2022/06/06 11:36:09;;;;;;;5.05;2.83;;;26.10;63.50;;;;;;5203949;28;20046;-76
2022/06/06 11:39:06;;;;;;;3.00;2.70;;;26.70;67.60;;;;;;5137606;28;20461;-75
2022/06/06 11:42:04;;;;;;;3.38;2.60;;;27.30;63.40;;;;;;5138019;28;20043;-75
2022/06/06 11:44:54;;;;;;;5.00;3.00;;;27.30;63.90;;;;;;5138138;28;20522;-77
2022/06/06 11:48:05;;;;;;;4.95;2.58;;;27.40;61.70;;;;;;5137701;28;20398;-76
2022/06/06 11:51:12;;;;;;;5.30;3.55;;;27.10;61.30;;;;;;5137107;28;20857;-73
2022/06/06 11:54:06;;;;;;;3.47;2.63;;;27.70;63.60;;;;;;5142210;28;20600;-77
2022/06/06 11:57:02;;;;;;;4.90;2.85;;;28.10;60.00;;;;;;5138216;28;20039;-75
2022/06/06 11:59:53;;;;;;;4.60;3.53;;;28.00;58.50;;;;;;5127079;28;20382;-75
2022/06/06 12:03:06;;;;;;;2.45;2.22;;;28.30;61.20;;;;;;5138703;28;20055;-75
2022/06/06 12:06:09;;;;;;;4.50;2.53;;;27.90;58.40;;;;;;5136256;28;20053;-75
2022/06/06 12:09:13;;;;;;;4.50;2.25;;;28.20;57.00;;;;;;5136501;28;20053;-75
2022/06/06 12:12:10;;;;;;;3.40;2.70;;;27.90;58.60;;;;;;5138426;28;20046;-75
2022/06/06 12:14:49;;;;;;;5.10;2.70;;;28.40;62.00;;;;;;5133952;28;20417;-75
2022/06/06 12:17:37;;;;;;;4.43;2.47;;;28.20;55.80;;;;;;5132549;28;20053;-76
2022/06/06 12:20:27;;;;;;;5.35;2.90;;;28.80;59.70;;;;;;5137319;28;20047;-75
2022/06/06 12:23:05;;;;;;;3.50;2.63;;;28.60;58.20;;;;;;5144011;28;20766;-75
2022/06/06 12:25:59;;;;;;;5.35;2.90;;;28.60;61.20;;;;;;5142006;28;20125;-76
2022/06/06 12:29:09;;;;;;;3.63;2.67;;;28.80;60.20;;;;;;5141526;28;20051;-77
2022/06/06 12:32:11;;;;;;;4.13;2.78;;;28.90;57.80;;;;;;5151697;28;20053;-79
2022/06/06 12:35:00;;;;;;;5.57;2.97;;;28.70;59.70;;;;;;5138285;28;20043;-75
2022/06/06 12:38:10;;;;;;;4.57;2.90;;;28.60;60.20;;;;;;5147115;28;20050;-75
2022/06/06 12:40:57;;;;;;;6.00;2.92;;;28.70;60.00;;;;;;5148597;28;20046;-75
2022/06/06 12:43:59;;;;;;;4.43;3.05;;;28.70;61.00;;;;;;5142621;28;20057;-75
2022/06/06 12:47:07;;;;;;;6.03;3.08;;;28.90;60.20;;;;;;5135849;28;20071;-74
2022/06/06 12:50:14;;;;;;;5.05;3.03;;;28.60;58.50;;;;;;5188241;28;20057;-75
2022/06/06 12:52:47;;;;;;;3.63;2.80;;;28.10;61.10;;;;;;5133919;28;20859;-75
2022/06/06 12:55:38;;;;;;;6.55;3.35;;;28.20;59.50;;;;;;5136172;28;20082;-76
2022/06/06 12:58:16;;;;;;;5.32;2.88;;;28.40;59.00;;;;;;5144337;28;20054;-75
2022/06/06 13:03:50;;;;;;;6.07;2.80;;;28.80;58.40;;;;;;5148184;28;20782;-74
2022/06/06 13:06:28;;;;;;;3.47;3.03;;;29.10;58.60;;;;;;5137292;28;20153;-74
2022/06/06 13:09:22;;;;;;;5.55;2.85;;;29.10;57.10;;;;;;5142967;28;20043;-75
2022/06/06 13:12:35;;;;;;;7.93;2.80;;;29.10;57.70;;;;;;5135242;28;20051;-74
2022/06/06 13:15:39;;;;;;;5.47;3.25;;;29.30;58.10;;;;;;5133763;28;20042;-75
2022/06/06 13:18:30;;;;;;;;;;;29.20;58.60;;;;;;5133231;28;20421;-75
2022/06/06 13:21:39;;;;;;;5.88;2.97;;;28.90;55.80;;;;;;5134347;28;20009;-74
2022/06/06 13:24:31;;;;;;;4.82;3.10;;;28.20;57.30;;;;;;5129088;28;20046;-75
2022/06/06 13:27:34;;;;;;;3.60;2.90;;;28.50;59.60;;;;;;5127643;28;20053;-75
2022/06/06 13:30:25;;;;;;;6.97;2.90;;;28.80;57.20;;;;;;5141095;28;20047;-77
2022/06/06 13:33:51;;;;;;;3.80;2.75;;;28.60;57.70;;;;;;5134415;28;20635;-74
2022/06/06 13:36:23;;;;;;;4.53;3.00;;;28.00;57.20;;;;;;5133220;28;20042;-74
2022/06/06 13:39:18;;;;;;;4.05;3.10;;;27.70;58.20;;;;;;5132607;28;20038;-75
2022/06/06 13:42:12;;;;;;;3.35;2.60;;;27.60;58.30;;;;;;5154743;28;20050;-76
2022/06/06 13:45:02;;;;;;;3.58;2.78;;;27.50;57.70;;;;;;5134102;28;20042;-75
2022/06/06 13:48:12;;;;;;;3.47;3.00;;;27.20;58.70;;;;;;5140282;28;20054;-77
2022/06/06 13:50:58;;;;;;;4.82;2.97;;;27.60;59.00;;;;;;5135192;28;20066;-76
2022/06/06 13:53:51;;;;;;;5.53;2.83;;;28.10;58.10;;;;;;5133261;28;20065;-77
2022/06/06 13:56:42;;;;;;;4.97;3.00;;;28.50;57.10;;;;;;5140261;28;20524;-76
2022/06/06 13:59:31;;;;;;;6.85;2.42;;;28.80;56.60;;;;;;5133026;28;20051;-76
2022/06/06 14:02:28;;;;;;;5.57;2.80;;;28.60;56.50;;;;;;5136383;28;20050;-75
2022/06/06 14:05:13;;;;;;;4.43;3.40;;;28.00;56.40;;;;;;5128232;28;20054;-76
2022/06/06 14:08:00;;;;;;;2.63;2.42;;;28.10;57.20;;;;;;5182405;28;20060;-76
2022/06/06 14:10:39;;;;;;;3.42;2.65;;;28.70;57.20;;;;;;5137082;28;20059;-76
2022/06/06 14:13:36;;;;;;;7.55;3.00;;;28.90;56.70;;;;;;5133928;28;20065;-76
2022/06/06 14:16:15;;;;;;;3.45;2.40;;;29.00;57.00;;;;;;5135695;28;20043;-78
2022/06/06 14:18:52;;;;;;;2.90;2.38;;;28.00;53.60;;;;;;5136039;28;20047;-76
2022/06/06 14:21:32;;;;;;;4.38;2.45;;;28.10;55.40;;;;;;5135332;28;20053;-76
2022/06/06 14:24:09;;;;;;;5.40;2.80;;;28.10;56.30;;;;;;5132360;28;20054;-76
2022/06/06 14:26:51;;;;;;;3.03;2.58;;;27.90;56.50;;;;;;5134673;28;20051;-77
2022/06/06 14:29:31;;;;;;;6.25;2.15;;;28.20;54.50;;;;;;5136491;28;20541;-76
2022/06/06 14:32:28;;;;;;;3.95;2.60;;;28.40;53.60;;;;;;5131844;28;20057;-77
2022/06/06 14:35:16;;;;;;;4.65;2.63;;;28.40;53.40;;;;;;5135581;28;20054;-77
2022/06/06 14:37:49;;;;;;;3.47;2.47;;;28.40;56.80;;;;;;5165340;28;20054;-76
2022/06/06 14:41:00;;;;;;;4.30;2.78;;;28.80;57.20;;;;;;5138090;28;20051;-76
2022/06/06 14:43:49;;;;;;;2.67;2.40;;;29.00;56.40;;;;;;5118151;28;20051;-75
2022/06/06 14:46:22;;;;;;;6.65;2.55;;;28.60;56.10;;;;;;5135738;28;20051;-77
2022/06/06 14:48:58;;;;;;;4.75;2.60;;;28.10;56.40;;;;;;5151251;28;20049;-74
2022/06/06 14:51:39;;;;;;;6.35;2.50;;;27.70;56.70;;;;;;5134380;28;20054;-76
2022/06/06 14:54:15;;;;;;;4.65;2.28;;;27.20;57.50;;;;;;5201918;28;20551;-75